createdAt,value
2016-03-20T00:00:29.054Z,0
2016-03-20T00:01:29.026Z,0
2016-03-20T00:02:29.201Z,0
2016-03-20T00:03:29.204Z,0
2016-03-20T00:04:29.206Z,0
2016-03-20T00:05:29.209Z,0
2016-03-20T00:06:29.211Z,0
2016-03-20T00:07:29.230Z,0
2016-03-20T00:08:29.216Z,0
2016-03-20T00:09:29.219Z,0
2016-03-20T00:10:29.238Z,0
2016-03-20T00:11:29.241Z,0
2016-03-20T00:12:29.227Z,0
2016-03-20T00:13:29.246Z,0
2016-03-20T00:14:29.279Z,0
2016-03-20T00:16:29.269Z,0
2016-03-20T00:17:29.272Z,0
2016-03-20T00:18:29.274Z,0
2016-03-20T00:19:29.310Z,0
2016-03-20T00:20:29.312Z,0
2016-03-20T00:21:29.158Z,0
2016-03-20T00:22:29.317Z,0
2016-03-20T00:23:29.320Z,0
2016-03-20T00:24:29.322Z,0
2016-03-20T00:25:29.325Z,0
2016-03-20T00:26:29.328Z,0
2016-03-20T00:27:29.331Z,0
2016-03-20T00:28:29.333Z,0
2016-03-20T00:29:29.367Z,0
2016-03-20T00:30:29.370Z,0
2016-03-20T00:31:29.372Z,0
2016-03-20T00:32:29.375Z,0
2016-03-20T00:33:29.378Z,0
2016-03-20T00:34:29.427Z,0
2016-03-20T00:35:29.398Z,0
2016-03-20T00:36:29.401Z,0
2016-03-20T00:37:29.404Z,0
2016-03-20T00:38:29.406Z,0
2016-03-20T00:39:28.675Z,0
2016-03-20T00:40:29.428Z,0
2016-03-20T00:41:29.431Z,0
2016-03-20T00:42:29.449Z,0
2016-03-20T00:43:29.436Z,0
2016-03-20T00:44:29.438Z,0
2016-03-20T00:45:29.472Z,0
2016-03-20T00:46:29.491Z,0
2016-03-20T00:47:29.477Z,0
2016-03-20T00:48:29.481Z,0
2016-03-20T00:49:29.468Z,0
2016-03-20T00:50:29.486Z,0
2016-03-20T00:51:29.473Z,0
2016-03-20T00:52:29.491Z,0
2016-03-20T00:53:29.525Z,0
2016-03-20T00:54:29.528Z,0
2016-03-20T00:55:29.531Z,0
2016-03-20T00:56:29.534Z,0
2016-03-20T00:57:29.536Z,0
2016-03-20T00:58:29.523Z,0
2016-03-20T00:59:29.526Z,0
2016-03-20T01:00:29.998Z,0
2016-03-20T01:01:29.547Z,0
2016-03-20T01:02:29.550Z,0
2016-03-20T01:03:29.584Z,0
2016-03-20T01:04:29.570Z,0
2016-03-20T01:05:29.573Z,0
2016-03-20T01:06:29.436Z,0
2016-03-20T01:07:29.610Z,0
2016-03-20T01:08:29.597Z,0
2016-03-20T01:09:29.599Z,0
2016-03-20T01:10:29.603Z,0
2016-03-20T01:11:29.605Z,0
2016-03-20T01:12:29.608Z,0
2016-03-20T01:13:29.610Z,0
2016-03-20T01:14:29.628Z,0
2016-03-20T01:15:29.631Z,0
2016-03-20T01:16:29.665Z,0
2016-03-20T01:17:29.668Z,0
2016-03-20T01:18:29.671Z,0
2016-03-20T01:19:29.658Z,0
2016-03-20T01:20:29.519Z,0
2016-03-20T01:21:29.663Z,0
2016-03-20T01:22:29.681Z,0
2016-03-20T01:23:29.684Z,0
2016-03-20T01:24:29.687Z,0
2016-03-20T01:25:29.705Z,0
2016-03-20T01:26:29.708Z,0
2016-03-20T01:27:29.710Z,0
2016-03-20T01:28:29.729Z,0
2016-03-20T01:29:29.748Z,0
2016-03-20T01:30:29.735Z,0
2016-03-20T01:31:29.753Z,0
2016-03-20T01:32:29.771Z,0
2016-03-20T01:33:29.743Z,0
2016-03-20T01:34:29.792Z,0
2016-03-20T01:35:29.747Z,0
2016-03-20T01:36:29.766Z,0
2016-03-20T01:37:29.769Z,0
2016-03-20T01:38:29.772Z,0
2016-03-20T01:39:29.805Z,0
2016-03-20T01:40:29.793Z,0
2016-03-20T01:41:29.811Z,0
2016-03-20T01:42:29.783Z,0
2016-03-20T01:43:29.800Z,0
2016-03-20T01:44:29.850Z,0
2016-03-20T01:45:29.821Z,0
2016-03-20T01:46:29.824Z,0
2016-03-20T01:47:29.827Z,0
2016-03-20T01:48:29.860Z,0
2016-03-20T01:49:29.832Z,0
2016-03-20T01:50:29.850Z,0
2016-03-20T01:51:29.853Z,0
2016-03-20T01:52:29.888Z,0
2016-03-20T01:53:29.905Z,0
2016-03-20T01:54:29.877Z,0
2016-03-20T01:55:29.896Z,0
2016-03-20T01:56:29.913Z,0
2016-03-20T01:57:29.900Z,0
2016-03-20T01:58:29.919Z,0
2016-03-20T01:59:29.890Z,0
2016-03-20T02:00:29.940Z,0
2016-03-20T02:01:29.911Z,0
2016-03-20T02:02:29.929Z,0
2016-03-20T02:03:29.948Z,0
2016-03-20T02:04:29.935Z,0
2016-03-20T02:05:29.954Z,0
2016-03-20T02:06:29.956Z,0
2016-03-20T02:07:29.958Z,0
2016-03-20T02:08:29.992Z,0
2016-03-20T02:09:29.964Z,0
2016-03-20T02:10:29.983Z,0
2016-03-20T02:11:29.970Z,0
2016-03-20T02:12:29.989Z,0
2016-03-20T02:13:29.975Z,0
2016-03-20T02:14:29.978Z,0
2016-03-20T02:15:30.042Z,0
2016-03-20T02:16:30.014Z,0
2016-03-20T02:17:30.017Z,0
2016-03-20T02:18:30.019Z,0
2016-03-20T02:19:30.022Z,0
2016-03-20T02:20:29.899Z,0
2016-03-20T02:21:30.027Z,0
2016-03-20T02:22:30.061Z,0
2016-03-20T02:23:30.064Z,0
2016-03-20T02:24:30.067Z,0
2016-03-20T02:25:30.101Z,0
2016-03-20T02:26:30.072Z,0
2016-03-20T02:27:30.091Z,0
2016-03-20T02:28:30.109Z,0
2016-03-20T02:29:30.080Z,0
2016-03-20T02:30:30.115Z,0
2016-03-20T02:31:30.117Z,0
2016-03-20T02:32:30.120Z,0
2016-03-20T02:33:30.107Z,0
2016-03-20T02:34:30.125Z,0
2016-03-20T02:35:30.143Z,0
2016-03-20T02:36:30.131Z,0
2016-03-20T02:37:30.165Z,0
2016-03-20T02:38:30.136Z,0
2016-03-20T02:39:30.154Z,0
2016-03-20T02:40:30.189Z,0
2016-03-20T02:41:30.159Z,0
2016-03-20T02:42:30.178Z,0
2016-03-20T02:43:30.164Z,0
2016-03-20T02:44:30.183Z,0
2016-03-20T02:45:30.202Z,0
2016-03-20T02:46:30.204Z,0
2016-03-20T02:47:30.208Z,0
2016-03-20T02:48:30.210Z,0
2016-03-20T02:49:30.213Z,0
2016-03-20T02:50:30.215Z,0
2016-03-20T02:51:30.218Z,0
2016-03-20T02:52:30.236Z,0
2016-03-20T02:53:30.238Z,0
2016-03-20T02:54:30.241Z,0
2016-03-20T02:55:30.244Z,0
2016-03-20T02:56:30.263Z,0
2016-03-20T02:57:30.280Z,0
2016-03-20T02:58:30.283Z,0
2016-03-20T02:59:30.270Z,0
2016-03-20T03:00:30.399Z,0
2016-03-20T03:01:30.354Z,0
2016-03-20T03:02:30.293Z,0
2016-03-20T03:03:30.297Z,0
2016-03-20T03:04:30.299Z,0
2016-03-20T03:05:30.318Z,0
2016-03-20T03:06:30.327Z,0
2016-03-20T03:07:30.330Z,0
2016-03-20T03:08:30.333Z,0
2016-03-20T03:09:30.336Z,0
2016-03-20T03:10:30.338Z,0
2016-03-20T03:11:30.341Z,0
2016-03-20T03:12:30.344Z,0
2016-03-20T03:13:30.346Z,0
2016-03-20T03:14:30.333Z,0
2016-03-20T03:15:30.383Z,0
2016-03-20T03:16:30.401Z,0
2016-03-20T03:17:30.388Z,0
2016-03-20T03:18:30.391Z,0
2016-03-20T03:19:30.393Z,0
2016-03-20T03:20:30.412Z,0
2016-03-20T03:21:30.415Z,0
2016-03-20T03:22:30.417Z,0
2016-03-20T03:23:30.420Z,0
2016-03-20T03:24:30.438Z,0
2016-03-20T03:25:30.440Z,0
2016-03-20T03:26:30.444Z,0
2016-03-20T03:27:30.446Z,0
2016-03-20T03:28:30.449Z,0
2016-03-20T03:29:30.451Z,0
2016-03-20T03:30:30.454Z,0
2016-03-20T03:31:30.456Z,0
2016-03-20T03:32:30.523Z,0
2016-03-20T03:33:30.478Z,0
2016-03-20T03:34:30.497Z,0
2016-03-20T03:35:30.499Z,0
2016-03-20T03:36:30.517Z,0
2016-03-20T03:37:30.505Z,0
2016-03-20T03:38:30.508Z,0
2016-03-20T03:39:30.510Z,0
2016-03-20T03:40:30.512Z,0
2016-03-20T03:41:30.516Z,0
2016-03-20T03:42:30.518Z,0
2016-03-20T03:43:30.521Z,0
2016-03-20T03:44:30.538Z,0
2016-03-20T03:45:30.557Z,0
2016-03-20T03:46:30.654Z,0
2016-03-20T03:47:30.563Z,0
2016-03-20T03:48:30.565Z,0
2016-03-20T03:49:30.568Z,0
2016-03-20T03:50:30.618Z,0
2016-03-20T03:51:30.588Z,0
2016-03-20T03:52:30.608Z,0
2016-03-20T03:53:30.610Z,0
2016-03-20T03:54:30.613Z,0
2016-03-20T03:55:30.599Z,0
2016-03-20T03:56:30.634Z,0
2016-03-20T03:57:30.652Z,0
2016-03-20T03:58:30.623Z,0
2016-03-20T03:59:30.642Z,0
2016-03-20T04:00:30.628Z,0
2016-03-20T04:01:30.663Z,0
2016-03-20T04:02:30.655Z,0
2016-03-20T04:03:30.658Z,0
2016-03-20T04:04:30.660Z,0
2016-03-20T04:05:30.694Z,0
2016-03-20T04:06:30.666Z,0
2016-03-20T04:07:30.683Z,0
2016-03-20T04:08:30.702Z,0
2016-03-20T04:09:30.688Z,0
2016-03-20T04:10:30.738Z,0
2016-03-20T04:11:30.695Z,0
2016-03-20T04:12:30.697Z,0
2016-03-20T04:13:30.715Z,0
2016-03-20T04:14:30.719Z,0
2016-03-20T04:15:30.721Z,0
2016-03-20T04:16:30.801Z,0
2016-03-20T04:17:30.742Z,0
2016-03-20T04:18:30.745Z,0
2016-03-20T04:19:30.747Z,0
2016-03-20T04:20:30.782Z,0
2016-03-20T04:21:30.768Z,0
2016-03-20T04:22:30.770Z,0
2016-03-20T04:23:30.821Z,0
2016-03-20T04:24:30.636Z,0
2016-03-20T04:25:30.809Z,0
2016-03-20T04:26:30.782Z,0
2016-03-20T04:27:30.790Z,0
2016-03-20T04:28:30.780Z,0
2016-03-20T04:29:30.770Z,0
2016-03-20T04:30:30.791Z,0
2016-03-20T04:31:30.765Z,0
2016-03-20T04:32:30.761Z,0
2016-03-20T04:33:30.759Z,0
2016-03-20T04:34:30.774Z,0
2016-03-20T04:35:30.788Z,0
2016-03-20T04:36:30.786Z,0
2016-03-20T04:37:30.787Z,0
2016-03-20T04:38:30.772Z,0
2016-03-20T04:39:30.773Z,0
2016-03-20T04:40:30.790Z,0
2016-03-20T04:41:30.791Z,0
2016-03-20T04:42:30.793Z,0
2016-03-20T04:43:30.826Z,0
2016-03-20T04:44:30.797Z,0
2016-03-20T04:45:30.813Z,0
2016-03-20T04:46:30.815Z,0
2016-03-20T04:47:30.834Z,0
2016-03-20T04:48:30.821Z,0
2016-03-20T04:49:30.823Z,0
2016-03-20T04:50:30.701Z,0
2016-03-20T04:51:30.845Z,0
2016-03-20T04:52:30.863Z,0
2016-03-20T04:53:30.881Z,0
2016-03-20T04:54:30.869Z,0
2016-03-20T04:55:30.886Z,0
2016-03-20T04:56:30.875Z,0
2016-03-20T04:57:30.877Z,0
2016-03-20T04:58:30.910Z,0
2016-03-20T04:59:30.883Z,0
2016-03-20T05:00:30.916Z,0
2016-03-20T05:01:30.949Z,0
2016-03-20T05:02:30.922Z,0
2016-03-20T05:03:30.939Z,0
2016-03-20T05:04:30.927Z,0
2016-03-20T05:05:30.945Z,0
2016-03-20T05:06:30.916Z,0
2016-03-20T05:07:30.934Z,0
2016-03-20T05:08:30.969Z,0
2016-03-20T05:09:30.955Z,0
2016-03-20T05:10:30.973Z,0
2016-03-20T05:11:30.961Z,0
2016-03-20T05:12:30.995Z,0
2016-03-20T05:13:30.998Z,0
2016-03-20T05:14:30.985Z,0
2016-03-20T05:16:31.037Z,0
2016-03-20T05:17:31.009Z,0
2016-03-20T05:18:31.011Z,0
2016-03-20T05:19:31.014Z,0
2016-03-20T05:20:31.017Z,0
2016-03-20T05:21:31.067Z,0
2016-03-20T05:22:31.022Z,0
2016-03-20T05:23:31.040Z,0
2016-03-20T05:24:31.059Z,0
2016-03-20T05:25:31.045Z,0
2016-03-20T05:26:31.064Z,0
2016-03-20T05:27:31.066Z,0
2016-03-20T05:28:31.053Z,0
2016-03-20T05:29:31.087Z,0
2016-03-20T05:30:31.059Z,0
2016-03-20T05:31:31.093Z,0
2016-03-20T05:32:31.096Z,0
2016-03-20T05:33:31.099Z,0
2016-03-20T05:34:31.101Z,0
2016-03-20T05:35:31.104Z,0
2016-03-20T05:36:31.153Z,0
2016-03-20T05:37:31.124Z,0
2016-03-20T05:38:31.127Z,0
2016-03-20T05:39:31.115Z,0
2016-03-20T05:40:31.132Z,0
2016-03-20T05:41:31.167Z,0
2016-03-20T05:42:31.123Z,0
2016-03-20T05:43:31.140Z,0
2016-03-20T05:44:31.175Z,0
2016-03-20T05:45:31.177Z,0
2016-03-20T05:46:31.179Z,0
2016-03-20T05:47:31.182Z,0
2016-03-20T05:48:31.185Z,0
2016-03-20T05:49:31.188Z,0
2016-03-20T05:50:31.191Z,0
2016-03-20T05:51:31.225Z,0
2016-03-20T05:52:31.212Z,0
2016-03-20T05:53:31.215Z,0
2016-03-20T05:54:31.217Z,0
2016-03-20T05:55:31.235Z,0
2016-03-20T05:56:31.253Z,0
2016-03-20T05:57:31.225Z,0
2016-03-20T05:58:31.244Z,0
2016-03-20T05:59:31.278Z,0
2016-03-20T06:00:31.249Z,0
2016-03-20T06:01:31.283Z,0
2016-03-20T06:02:31.270Z,0
2016-03-20T06:03:31.288Z,0
2016-03-20T06:04:31.275Z,0
2016-03-20T06:05:31.277Z,0
2016-03-20T06:06:31.328Z,0
2016-03-20T06:07:31.283Z,5
2016-03-20T06:08:31.318Z,5
2016-03-20T06:09:31.352Z,5
2016-03-20T06:10:31.307Z,5
2016-03-20T06:11:31.326Z,5
2016-03-20T06:12:31.312Z,10
2016-03-20T06:13:31.331Z,10
2016-03-20T06:14:31.364Z,10
2016-03-20T06:15:31.337Z,5
2016-03-20T06:16:31.354Z,5
2016-03-20T06:17:31.357Z,5
2016-03-20T06:18:31.376Z,0
2016-03-20T06:19:31.409Z,0
2016-03-20T06:20:31.381Z,0
2016-03-20T06:21:31.415Z,0
2016-03-20T06:22:31.386Z,5
2016-03-20T06:23:31.389Z,5
2016-03-20T06:24:31.406Z,5
2016-03-20T06:25:31.409Z,5
2016-03-20T06:26:31.444Z,5
2016-03-20T06:27:31.415Z,5
2016-03-20T06:28:31.433Z,5
2016-03-20T06:29:31.452Z,5
2016-03-20T06:30:31.423Z,5
2016-03-20T06:31:31.442Z,5
2016-03-20T06:32:31.445Z,5
2016-03-20T06:33:31.463Z,5
2016-03-20T06:34:31.466Z,5
2016-03-20T06:35:31.469Z,5
2016-03-20T06:36:31.486Z,5
2016-03-20T06:37:31.473Z,5
2016-03-20T06:38:31.476Z,5
2016-03-20T06:39:31.526Z,5
2016-03-20T06:40:31.482Z,5
2016-03-20T06:41:31.499Z,5
2016-03-20T06:42:31.549Z,5
2016-03-20T06:43:31.505Z,5
2016-03-20T06:44:31.524Z,5
2016-03-20T06:45:31.510Z,5
2016-03-20T06:46:31.529Z,5
2016-03-20T06:47:31.548Z,5
2016-03-20T06:48:31.551Z,5
2016-03-20T06:49:31.553Z,5
2016-03-20T06:50:31.555Z,5
2016-03-20T06:51:31.590Z,10
2016-03-20T06:52:31.561Z,10
2016-03-20T06:53:31.579Z,10
2016-03-20T06:54:31.629Z,10
2016-03-20T06:55:31.584Z,10
2016-03-20T06:56:31.603Z,10
2016-03-20T06:57:31.606Z,15
2016-03-20T06:58:31.608Z,15
2016-03-20T06:59:31.626Z,15
2016-03-20T07:00:31.723Z,15
2016-03-20T07:01:31.647Z,15
2016-03-20T07:02:31.634Z,15
2016-03-20T07:03:31.653Z,15
2016-03-20T07:04:31.639Z,15
2016-03-20T07:05:31.658Z,15
2016-03-20T07:06:31.708Z,10
2016-03-20T07:07:31.663Z,10
2016-03-20T07:08:31.666Z,10
2016-03-20T07:09:31.653Z,15
2016-03-20T07:10:31.671Z,15
2016-03-20T07:11:31.738Z,15
2016-03-20T07:12:31.693Z,15
2016-03-20T07:13:31.711Z,10
2016-03-20T07:14:31.698Z,10
2016-03-20T07:15:31.701Z,10
2016-03-20T07:16:31.735Z,10
2016-03-20T07:17:31.706Z,10
2016-03-20T07:18:31.709Z,10
2016-03-20T07:19:31.726Z,10
2016-03-20T07:20:31.777Z,10
2016-03-20T07:21:31.779Z,10
2016-03-20T07:22:31.735Z,10
2016-03-20T07:23:31.753Z,10
2016-03-20T07:24:31.756Z,10
2016-03-20T07:25:31.759Z,5
2016-03-20T07:26:31.792Z,5
2016-03-20T07:27:31.780Z,5
2016-03-20T07:28:31.783Z,5
2016-03-20T07:29:31.847Z,5
2016-03-20T07:30:31.788Z,5
2016-03-20T07:31:31.822Z,5
2016-03-20T07:32:31.824Z,5
2016-03-20T07:33:31.828Z,5
2016-03-20T07:34:31.830Z,5
2016-03-20T07:35:31.816Z,5
2016-03-20T07:36:31.836Z,5
2016-03-20T07:37:31.841Z,5
2016-03-20T07:38:31.546Z,5
2016-03-20T07:39:32.175Z,5
2016-03-20T07:40:31.864Z,5
2016-03-20T07:41:31.898Z,5
2016-03-20T07:42:31.870Z,5
2016-03-20T07:43:31.732Z,5
2016-03-20T07:44:31.875Z,5
2016-03-20T07:45:31.738Z,5
2016-03-20T07:46:31.927Z,5
2016-03-20T07:47:31.899Z,10
2016-03-20T07:48:31.902Z,10
2016-03-20T07:49:31.904Z,10
2016-03-20T07:50:31.907Z,10
2016-03-20T07:51:31.941Z,15
2016-03-20T07:52:31.912Z,20
2016-03-20T07:53:31.932Z,25
2016-03-20T07:54:31.949Z,25
2016-03-20T07:55:31.951Z,30
2016-03-20T07:56:31.986Z,30
2016-03-20T07:57:31.957Z,30
2016-03-20T07:58:31.960Z,35
2016-03-20T07:59:31.962Z,30
2016-03-20T08:00:31.965Z,35
2016-03-20T08:01:31.998Z,35
2016-03-20T08:02:32.002Z,25
2016-03-20T08:03:32.020Z,25
2016-03-20T08:04:31.991Z,20
2016-03-20T08:05:32.010Z,20
2016-03-20T08:06:31.997Z,15
2016-03-20T08:07:32.031Z,15
2016-03-20T08:08:32.017Z,15
2016-03-20T08:09:32.020Z,15
2016-03-20T08:10:32.039Z,15
2016-03-20T08:11:32.041Z,15
2016-03-20T08:12:32.060Z,20
2016-03-20T08:13:32.063Z,20
2016-03-20T08:14:32.081Z,20
2016-03-20T08:15:32.052Z,20
2016-03-20T08:16:32.055Z,25
2016-03-20T08:17:32.073Z,25
2016-03-20T08:18:32.060Z,30
2016-03-20T08:19:32.110Z,35
2016-03-20T08:20:32.082Z,40
2016-03-20T08:21:32.115Z,45
2016-03-20T08:22:32.102Z,60
2016-03-20T08:23:32.137Z,60
2016-03-20T08:24:32.123Z,60
2016-03-20T08:25:32.142Z,160
2016-03-20T08:26:32.129Z,95
2016-03-20T08:27:32.131Z,45
2016-03-20T08:28:32.151Z,35
2016-03-20T08:29:32.137Z,30
2016-03-20T08:30:32.156Z,30
2016-03-20T08:31:32.142Z,30
2016-03-20T08:32:32.270Z,30
2016-03-20T08:33:32.195Z,25
2016-03-20T08:34:32.181Z,25
2016-03-20T08:35:32.200Z,30
2016-03-20T08:36:32.187Z,30
2016-03-20T08:37:32.206Z,25
2016-03-20T08:38:32.192Z,25
2016-03-20T08:39:32.211Z,25
2016-03-20T08:40:32.245Z,30
2016-03-20T08:41:32.216Z,35
2016-03-20T08:42:32.234Z,30
2016-03-20T08:43:32.221Z,30
2016-03-20T08:44:32.239Z,35
2016-03-20T08:45:52.492Z,30
2016-03-20T08:46:32.245Z,25
2016-03-20T08:47:32.294Z,25
2016-03-20T08:48:32.110Z,20
2016-03-20T08:49:32.269Z,20
2016-03-20T08:50:32.271Z,20
2016-03-20T08:51:32.321Z,15
2016-03-20T08:52:32.277Z,15
2016-03-20T08:53:32.310Z,15
2016-03-20T08:54:32.126Z,15
2016-03-20T08:55:32.348Z,15
2016-03-20T08:56:32.304Z,15
2016-03-20T08:57:32.321Z,15
2016-03-20T08:58:32.356Z,15
2016-03-20T08:59:32.327Z,15
2016-03-20T09:00:32.814Z,20
2016-03-20T09:01:32.364Z,20
2016-03-20T09:02:32.428Z,20
2016-03-20T09:03:32.370Z,20
2016-03-20T09:04:32.356Z,20
2016-03-20T09:05:32.358Z,25
2016-03-20T09:06:32.392Z,25
2016-03-20T09:07:32.364Z,25
2016-03-20T09:08:32.383Z,25
2016-03-20T09:09:32.385Z,25
2016-03-20T09:10:32.388Z,30
2016-03-20T09:11:32.422Z,35
2016-03-20T09:12:32.409Z,35
2016-03-20T09:13:32.411Z,30
2016-03-20T09:14:32.414Z,30
2016-03-20T09:15:32.417Z,25
2016-03-20T09:16:32.466Z,25
2016-03-20T09:17:32.328Z,25
2016-03-20T09:18:32.456Z,20
2016-03-20T09:19:32.458Z,20
2016-03-20T09:20:32.461Z,20
2016-03-20T09:21:32.496Z,20
2016-03-20T09:22:32.466Z,20
2016-03-20T09:23:32.485Z,20
2016-03-20T09:24:32.472Z,25
2016-03-20T09:25:32.474Z,25
2016-03-20T09:26:32.352Z,25
2016-03-20T09:27:32.496Z,25
2016-03-20T09:28:32.498Z,25
2016-03-20T09:29:32.518Z,25
2016-03-20T09:30:32.520Z,30
2016-03-20T09:31:32.537Z,35
2016-03-20T09:32:32.510Z,35
2016-03-20T09:33:32.543Z,30
2016-03-20T09:34:32.561Z,30
2016-03-20T09:35:32.533Z,30
2016-03-20T09:36:32.583Z,30
2016-03-20T09:37:32.586Z,30
2016-03-20T09:38:32.557Z,30
2016-03-20T09:39:32.591Z,25
2016-03-20T09:40:32.562Z,25
2016-03-20T09:41:32.581Z,25
2016-03-20T09:42:32.583Z,20
2016-03-20T09:43:32.601Z,20
2016-03-20T09:44:32.605Z,20
2016-03-20T09:46:32.594Z,20
2016-03-20T09:47:32.628Z,20
2016-03-20T09:48:32.630Z,20
2016-03-20T09:49:32.633Z,20
2016-03-20T09:50:32.667Z,20
2016-03-20T09:51:32.639Z,25
2016-03-20T09:52:32.641Z,25
2016-03-20T09:53:32.691Z,25
2016-03-20T09:54:32.647Z,25
2016-03-20T09:55:32.727Z,25
2016-03-20T09:56:32.668Z,25
2016-03-20T09:57:32.671Z,25
2016-03-20T09:58:32.688Z,25
2016-03-20T09:59:32.691Z,30
2016-03-20T10:00:32.678Z,30
2016-03-20T10:01:32.696Z,25
2016-03-20T10:02:32.590Z,25
2016-03-20T10:03:32.702Z,25
2016-03-20T10:04:32.720Z,25
2016-03-20T10:05:32.723Z,25
2016-03-20T10:06:32.726Z,25
2016-03-20T10:07:32.728Z,20
2016-03-20T10:08:32.684Z,20
2016-03-20T10:09:32.749Z,20
2016-03-20T10:10:32.753Z,20
2016-03-20T10:11:32.755Z,20
2016-03-20T10:12:32.773Z,20
2016-03-20T10:13:32.776Z,20
2016-03-20T10:14:32.778Z,20
2016-03-20T10:15:32.781Z,20
2016-03-20T10:16:32.783Z,20
2016-03-20T10:17:32.802Z,20
2016-03-20T10:18:32.805Z,20
2016-03-20T10:19:32.807Z,25
2016-03-20T10:20:32.827Z,25
2016-03-20T10:21:32.844Z,25
2016-03-20T10:22:32.832Z,30
2016-03-20T10:23:32.835Z,35
2016-03-20T10:24:32.852Z,35
2016-03-20T10:25:32.855Z,40
2016-03-20T10:26:32.858Z,45
2016-03-20T10:27:32.860Z,50
2016-03-20T10:28:32.863Z,55
2016-03-20T10:29:32.866Z,55
2016-03-20T10:30:32.885Z,60
2016-03-20T10:31:32.871Z,65
2016-03-20T10:32:32.905Z,70
2016-03-20T10:33:32.908Z,75
2016-03-20T10:34:32.910Z,85
2016-03-20T10:35:32.913Z,90
2016-03-20T10:36:32.915Z,90
2016-03-20T10:37:32.919Z,90
2016-03-20T10:38:32.921Z,85
2016-03-20T10:39:32.923Z,85
2016-03-20T10:40:32.926Z,85
2016-03-20T10:41:32.945Z,85
2016-03-20T10:42:32.947Z,80
2016-03-20T10:43:32.966Z,80
2016-03-20T10:44:32.969Z,80
2016-03-20T10:45:32.987Z,80
2016-03-20T10:46:32.989Z,80
2016-03-20T10:47:32.977Z,80
2016-03-20T10:48:32.995Z,85
2016-03-20T10:49:32.982Z,85
2016-03-20T10:50:33.000Z,85
2016-03-20T10:51:33.003Z,85
2016-03-20T10:52:33.005Z,85
2016-03-20T10:53:33.025Z,85
2016-03-20T10:54:33.043Z,85
2016-03-20T10:55:33.045Z,80
2016-03-20T10:56:33.048Z,80
2016-03-20T10:57:33.051Z,80
2016-03-20T10:58:33.053Z,80
2016-03-20T10:59:33.056Z,85
2016-03-20T11:00:33.434Z,80
2016-03-20T11:01:33.077Z,80
2016-03-20T11:02:33.079Z,80
2016-03-20T11:03:33.082Z,80
2016-03-20T11:04:32.929Z,80
2016-03-20T11:05:33.087Z,80
2016-03-20T11:06:33.106Z,75
2016-03-20T11:07:33.108Z,75
2016-03-20T11:08:33.111Z,75
2016-03-20T11:09:33.130Z,75
2016-03-20T11:10:33.148Z,70
2016-03-20T11:11:33.150Z,70
2016-03-20T11:12:33.153Z,70
2016-03-20T11:13:33.140Z,75
2016-03-20T11:14:33.142Z,95
2016-03-20T11:15:33.161Z,90
2016-03-20T11:16:33.008Z,90
2016-03-20T11:17:33.167Z,95
2016-03-20T11:18:33.169Z,100
2016-03-20T11:19:33.188Z,100
2016-03-20T11:20:33.191Z,95
2016-03-20T11:21:33.208Z,90
2016-03-20T11:22:33.196Z,85
2016-03-20T11:23:33.214Z,85
2016-03-20T11:24:33.216Z,80
2016-03-20T11:25:33.220Z,80
2016-03-20T11:26:33.222Z,75
2016-03-20T11:27:33.257Z,70
2016-03-20T11:28:33.259Z,65
2016-03-20T11:29:33.262Z,60
2016-03-20T11:30:33.265Z,65
2016-03-20T11:31:33.251Z,65
2016-03-20T11:32:33.254Z,65
2016-03-20T11:33:33.273Z,65
2016-03-20T11:34:33.276Z,65
2016-03-20T11:35:33.293Z,65
2016-03-20T11:36:33.295Z,65
2016-03-20T11:37:33.299Z,65
2016-03-20T11:38:33.332Z,65
2016-03-20T11:39:33.319Z,70
2016-03-20T11:40:33.322Z,70
2016-03-20T11:41:34.544Z,70
2016-03-20T11:42:33.359Z,70
2016-03-20T11:43:33.331Z,65
2016-03-20T11:44:33.506Z,70
2016-03-20T11:45:33.351Z,70
2016-03-20T11:46:33.385Z,70
2016-03-20T11:47:33.356Z,70
2016-03-20T11:48:37.984Z,65
2016-03-20T11:49:33.847Z,65
2016-03-20T11:50:33.380Z,60
2016-03-20T11:51:33.383Z,55
2016-03-20T11:52:33.417Z,50
2016-03-20T11:53:33.388Z,50
2016-03-20T11:54:33.422Z,50
2016-03-20T11:55:33.409Z,50
2016-03-20T11:56:33.412Z,45
2016-03-20T11:57:33.446Z,45
2016-03-20T11:58:33.433Z,45
2016-03-20T11:59:33.436Z,45
2016-03-20T12:00:33.455Z,45
2016-03-20T12:01:33.473Z,45
2016-03-20T12:02:33.476Z,50
2016-03-20T12:03:33.447Z,50
2016-03-20T12:04:33.496Z,55
2016-03-20T12:05:33.467Z,55
2016-03-20T12:06:33.470Z,60
2016-03-20T12:07:33.504Z,60
2016-03-20T12:08:33.491Z,60
2016-03-20T12:09:33.510Z,65
2016-03-20T12:10:33.528Z,65
2016-03-20T12:11:33.515Z,65
2016-03-20T12:12:33.549Z,60
2016-03-20T12:13:33.521Z,60
2016-03-20T12:14:33.523Z,55
2016-03-20T12:15:33.556Z,55
2016-03-20T12:16:33.559Z,55
2016-03-20T12:17:33.562Z,50
2016-03-20T12:18:33.549Z,45
2016-03-20T12:19:33.552Z,45
2016-03-20T12:20:33.586Z,45
2016-03-20T12:21:33.573Z,45
2016-03-20T12:22:33.575Z,40
2016-03-20T12:23:33.578Z,40
2016-03-20T12:24:33.581Z,40
2016-03-20T12:25:33.615Z,40
2016-03-20T12:26:33.587Z,40
2016-03-20T12:27:33.621Z,35
2016-03-20T12:28:33.607Z,35
2016-03-20T12:29:33.611Z,35
2016-03-20T12:30:33.644Z,35
2016-03-20T12:31:33.631Z,35
2016-03-20T12:32:33.635Z,35
2016-03-20T12:33:33.637Z,35
2016-03-20T12:34:33.640Z,35
2016-03-20T12:35:33.674Z,35
2016-03-20T12:36:33.645Z,35
2016-03-20T12:37:33.679Z,30
2016-03-20T12:38:33.713Z,30
2016-03-20T12:39:33.668Z,30
2016-03-20T12:40:33.703Z,30
2016-03-20T12:41:33.690Z,35
2016-03-20T12:42:33.709Z,35
2016-03-20T12:43:33.726Z,40
2016-03-20T12:44:33.713Z,45
2016-03-20T12:45:33.716Z,45
2016-03-20T12:46:33.719Z,45
2016-03-20T12:47:33.722Z,45
2016-03-20T12:48:33.740Z,45
2016-03-20T12:49:33.742Z,45
2016-03-20T12:50:33.745Z,45
2016-03-20T12:51:33.748Z,45
2016-03-20T12:52:33.781Z,45
2016-03-20T12:53:33.753Z,50
2016-03-20T12:54:33.787Z,50
2016-03-20T12:55:33.789Z,50
2016-03-20T12:56:33.777Z,45
2016-03-20T12:57:33.638Z,40
2016-03-20T12:58:33.797Z,35
2016-03-20T12:59:33.800Z,35
2016-03-20T13:00:33.834Z,30
2016-03-20T13:01:33.805Z,30
2016-03-20T13:02:33.840Z,30
2016-03-20T13:03:33.827Z,30
2016-03-20T13:04:33.829Z,30
2016-03-20T13:05:33.863Z,30
2016-03-20T13:06:33.710Z,30
2016-03-20T13:07:33.118Z,30
2016-03-20T13:08:33.841Z,35
2016-03-20T13:09:33.859Z,35
2016-03-20T13:10:33.862Z,30
2016-03-20T13:11:33.864Z,30
2016-03-20T13:12:33.898Z,30
2016-03-20T13:13:33.870Z,30
2016-03-20T13:14:33.903Z,30
2016-03-20T13:15:33.890Z,30
2016-03-20T13:16:33.909Z,30
2016-03-20T13:17:33.896Z,30
2016-03-20T13:18:33.914Z,30
2016-03-20T13:19:33.964Z,30
2016-03-20T13:20:33.920Z,30
2016-03-20T13:21:33.938Z,30
2016-03-20T13:22:33.925Z,30
2016-03-20T13:23:33.928Z,30
2016-03-20T13:24:33.978Z,30
2016-03-20T13:25:33.949Z,30
2016-03-20T13:26:33.967Z,30
2016-03-20T13:27:36.219Z,30
2016-03-20T13:28:33.972Z,25
2016-03-20T13:29:33.991Z,25
2016-03-20T13:30:33.978Z,25
2016-03-20T13:31:34.012Z,25
2016-03-20T13:32:33.984Z,25
2016-03-20T13:33:33.989Z,25
2016-03-20T13:34:33.992Z,25
2016-03-20T13:35:33.964Z,25
2016-03-20T13:36:33.967Z,25
2016-03-20T13:37:33.988Z,25
2016-03-20T13:38:33.953Z,25
2016-03-20T13:39:33.950Z,20
2016-03-20T13:40:33.964Z,20
2016-03-20T13:41:33.961Z,25
2016-03-20T13:42:33.989Z,25
2016-03-20T13:43:33.943Z,25
2016-03-20T13:44:33.976Z,25
2016-03-20T13:45:48.086Z,30
2016-03-20T13:46:33.978Z,35
2016-03-20T13:47:34.025Z,35
2016-03-20T13:48:34.011Z,35
2016-03-20T13:49:33.981Z,40
2016-03-20T13:50:33.983Z,40
2016-03-20T13:51:33.985Z,35
2016-03-20T13:52:33.987Z,35
2016-03-20T13:53:34.005Z,35
2016-03-20T13:54:34.024Z,35
2016-03-20T13:55:34.026Z,40
2016-03-20T13:56:34.028Z,40
2016-03-20T13:57:34.061Z,35
2016-03-20T13:58:34.049Z,35
2016-03-20T13:59:34.051Z,30
2016-03-20T14:00:34.038Z,30
2016-03-20T14:01:34.057Z,30
2016-03-20T14:02:34.060Z,30
2016-03-20T14:03:34.094Z,30
2016-03-20T14:04:34.066Z,30
2016-03-20T14:05:34.068Z,25
2016-03-20T14:06:34.086Z,25
2016-03-20T14:07:34.088Z,25
2016-03-20T14:08:34.091Z,25
2016-03-20T14:09:34.094Z,25
2016-03-20T14:10:34.096Z,30
2016-03-20T14:11:34.084Z,30
2016-03-20T14:12:34.101Z,30
2016-03-20T14:13:34.120Z,30
2016-03-20T14:14:34.123Z,30
2016-03-20T14:15:34.140Z,30
2016-03-20T14:16:34.143Z,25
2016-03-20T14:17:34.162Z,25
2016-03-20T14:18:34.196Z,25
2016-03-20T14:19:34.184Z,25
2016-03-20T14:20:34.154Z,25
2016-03-20T14:21:34.157Z,25
2016-03-20T14:22:34.175Z,20
2016-03-20T14:23:34.178Z,20
2016-03-20T14:24:34.197Z,20
2016-03-20T14:25:34.183Z,15
2016-03-20T14:26:34.186Z,15
2016-03-20T14:27:34.204Z,15
2016-03-20T14:28:34.207Z,15
2016-03-20T14:29:34.210Z,15
2016-03-20T14:30:34.244Z,15
2016-03-20T14:31:34.246Z,15
2016-03-20T14:32:34.234Z,15
2016-03-20T14:33:34.252Z,15